createdAt,value
2022-11-25T00:01:36.126Z,78.16
2022-11-25T00:03:35.288Z,78.30
2022-11-25T00:05:33.375Z,77.88
2022-11-25T00:07:31.659Z,78.04
2022-11-25T00:09:29.987Z,78.32
2022-11-25T00:11:28.665Z,78.13
2022-11-25T00:13:28.244Z,77.69
2022-11-25T00:15:26.599Z,77.24
2022-11-25T00:17:25.028Z,77.13
2022-11-25T00:19:23.260Z,76.98
2022-11-25T00:21:22.992Z,76.82
2022-11-25T00:23:21.179Z,76.50
2022-11-25T00:25:19.442Z,77.03
2022-11-25T00:27:18.044Z,77.21
2022-11-25T00:29:19.063Z,77.37
2022-11-25T00:31:19.560Z,77.34
2022-11-25T00:33:18.727Z,77.67
2022-11-25T00:35:18.463Z,77.66
2022-11-25T00:37:16.854Z,77.34
2022-11-25T00:39:16.999Z,77.02
2022-11-25T00:41:32.946Z,77.04
2022-11-25T00:43:48.646Z,76.84
2022-11-25T00:45:48.383Z,77.59
2022-11-25T00:47:46.663Z,78.16
2022-11-25T00:49:46.675Z,78.13
2022-11-25T00:51:44.998Z,78.59
2022-11-25T00:53:43.167Z,78.55
2022-11-25T00:55:55.284Z,78.76
2022-11-25T00:57:54.678Z,79.58
2022-11-25T00:59:52.856Z,79.08
2022-11-25T01:01:54.185Z,78.53
2022-11-25T01:03:53.016Z,78.85
2022-11-25T01:05:51.253Z,78.78
2022-11-25T01:07:49.679Z,79.03
2022-11-25T01:09:49.130Z,78.84
2022-11-25T01:11:47.443Z,79.39
2022-11-25T01:13:45.810Z,79.63
2022-11-25T01:15:44.013Z,79.78
2022-11-25T01:17:43.651Z,79.72
2022-11-25T01:19:44.122Z,79.92
2022-11-25T01:21:42.334Z,79.63
2022-11-25T01:23:43.497Z,78.45
2022-11-25T01:25:44.336Z,78.78
2022-11-25T01:27:43.234Z,78.76
2022-11-25T01:29:43.035Z,79.11
2022-11-25T01:31:41.460Z,79.55
2022-11-25T01:33:41.513Z,78.84
2022-11-25T01:35:39.742Z,79.90
2022-11-25T01:37:37.864Z,79.84
2022-11-25T01:39:35.970Z,79.27
2022-11-25T01:41:36.383Z,79.27
2022-11-25T01:43:34.939Z,78.44
2022-11-25T01:45:38.034Z,78.16
2022-11-25T01:47:36.519Z,77.67
2022-11-25T01:49:41.073Z,76.88
2022-11-25T01:51:43.924Z,77.72
2022-11-25T01:53:42.170Z,77.55
2022-11-25T01:55:43.330Z,77.78
2022-11-25T01:57:47.795Z,76.84
2022-11-25T01:59:50.951Z,76.88
2022-11-25T02:01:49.358Z,76.91
2022-11-25T02:03:52.149Z,77.51
2022-11-25T02:06:00.029Z,77.58
2022-11-25T02:07:59.836Z,78.15
2022-11-25T02:09:58.689Z,77.46
2022-11-25T02:11:58.143Z,77.30
2022-11-25T02:13:57.185Z,77.14
2022-11-25T02:15:57.703Z,76.58
2022-11-25T02:17:56.260Z,76.22
2022-11-25T02:20:01.441Z,75.07
2022-11-25T02:22:10.954Z,74.29
2022-11-25T02:24:16.245Z,74.83
2022-11-25T02:26:18.091Z,74.33
2022-11-25T02:28:19.818Z,75.04
2022-11-25T02:30:18.175Z,74.82
2022-11-25T02:32:16.681Z,74.53
2022-11-25T02:34:15.072Z,75.12
2022-11-25T02:36:16.142Z,75.17
2022-11-25T02:38:18.577Z,73.82
2022-11-25T02:40:17.642Z,73.93
2022-11-25T02:42:20.158Z,74.25
2022-11-25T02:44:18.659Z,74.67
2022-11-25T02:46:22.250Z,74.51
2022-11-25T02:48:30.192Z,74.24
2022-11-25T02:50:39.767Z,74.61
2022-11-25T02:52:38.183Z,74.43
2022-11-25T02:54:36.593Z,74.93
2022-11-25T02:56:36.219Z,74.56
2022-11-25T02:58:38.325Z,74.88
2022-11-25T03:00:37.010Z,75.02
2022-11-25T03:02:35.327Z,74.45
2022-11-25T03:04:33.952Z,74.42
2022-11-25T03:06:34.078Z,74.83
2022-11-25T03:08:32.605Z,74.68
2022-11-25T03:10:32.276Z,74.52
2022-11-25T03:12:30.057Z,74.06
2022-11-25T03:14:30.730Z,74.86
2022-11-25T03:16:29.010Z,75.31
2022-11-25T03:18:27.262Z,75.43
2022-11-25T03:20:26.115Z,74.98
2022-11-25T03:22:24.399Z,75.63
2022-11-25T03:24:22.661Z,76.50
2022-11-25T03:26:21.588Z,77.49
2022-11-25T03:28:19.911Z,77.40
2022-11-25T03:30:22.910Z,77.38
2022-11-25T03:32:23.638Z,77.40
2022-11-25T03:34:21.820Z,77.81
2022-11-25T03:36:21.029Z,78.36
2022-11-25T03:38:19.559Z,78.09
2022-11-25T03:40:18.216Z,78.50
2022-11-25T03:42:16.955Z,78.92
2022-11-25T03:44:15.943Z,79.23
2022-11-25T03:46:15.969Z,79.04
2022-11-25T03:48:14.919Z,79.50
2022-11-25T03:50:15.288Z,80.05
2022-11-25T03:52:15.123Z,80.55
2022-11-25T03:54:13.582Z,80.89
2022-11-25T03:56:32.028Z,81.49
2022-11-25T03:58:30.183Z,82.32
2022-11-25T04:00:28.778Z,82.92
2022-11-25T04:02:35.538Z,83.47
2022-11-25T04:04:34.240Z,83.65
2022-11-25T04:06:32.636Z,83.64
2022-11-25T04:08:31.711Z,84.26
2022-11-25T04:10:30.155Z,84.25
2022-11-25T04:12:46.415Z,83.69
2022-11-25T04:14:48.231Z,83.61
2022-11-25T04:16:46.686Z,84.01
2022-11-25T04:18:46.309Z,84.02
2022-11-25T04:20:44.536Z,84.46
2022-11-25T04:22:44.174Z,84.70
2022-11-25T04:24:42.742Z,84.57
2022-11-25T04:26:41.773Z,84.85
2022-11-25T04:28:40.109Z,84.79
2022-11-25T04:30:39.718Z,84.99
2022-11-25T04:32:39.212Z,85.09
2022-11-25T04:34:40.866Z,85.04
2022-11-25T04:36:40.137Z,84.47
2022-11-25T04:38:38.689Z,84.16
2022-11-25T04:40:37.948Z,83.79
2022-11-25T04:42:44.706Z,83.75
2022-11-25T04:45:01.038Z,84.45
2022-11-25T04:47:03.568Z,84.35
2022-11-25T04:49:02.621Z,85.22
2022-11-25T04:51:02.141Z,85.17
2022-11-25T04:53:00.580Z,85.55
2022-11-25T04:54:59.155Z,85.80
2022-11-25T04:56:57.668Z,86.54
2022-11-25T04:59:13.306Z,86.99
2022-11-25T05:01:16.022Z,87.12
2022-11-25T05:03:17.674Z,87.57
2022-11-25T05:05:16.285Z,87.44
2022-11-25T05:07:17.927Z,87.66
2022-11-25T05:09:19.249Z,87.98
2022-11-25T05:11:22.496Z,88.19
2022-11-25T05:13:22.100Z,88.59
2022-11-25T05:15:20.337Z,88.46
2022-11-25T05:17:21.515Z,87.91
2022-11-25T05:19:20.129Z,87.93
2022-11-25T05:21:19.311Z,88.22
2022-11-25T05:23:19.168Z,88.07
2022-11-25T05:25:18.030Z,86.78
2022-11-25T05:27:30.196Z,85.30
2022-11-25T05:29:32.609Z,84.44
2022-11-25T05:31:31.072Z,83.35
2022-11-25T05:33:29.687Z,83.70
2022-11-25T05:35:28.048Z,82.33
2022-11-25T05:37:26.359Z,81.65
2022-11-25T05:39:33.130Z,81.42
2022-11-25T05:41:54.553Z,80.96
2022-11-25T05:43:53.209Z,80.76
2022-11-25T05:45:51.541Z,80.04
2022-11-25T05:47:50.102Z,78.99
2022-11-25T05:49:52.455Z,78.86
2022-11-25T05:51:50.986Z,78.96
2022-11-25T05:53:52.568Z,78.37
2022-11-25T05:55:59.819Z,74.78
2022-11-25T05:58:21.357Z,70.91
2022-11-25T06:00:26.714Z,69.39
2022-11-25T06:02:26.040Z,69.59
2022-11-25T06:04:24.458Z,70.63
2022-11-25T06:06:22.636Z,69.50
2022-11-25T06:08:21.053Z,67.28
2022-11-25T06:10:20.105Z,65.59
2022-11-25T06:12:22.010Z,65.15
2022-11-25T06:14:21.029Z,63.20
2022-11-25T06:16:23.327Z,62.85
2022-11-25T06:18:30.730Z,64.70
2022-11-25T06:20:29.079Z,66.22
2022-11-25T06:22:27.359Z,67.56
2022-11-25T06:24:25.914Z,68.96
2022-11-25T06:26:29.790Z,69.37
2022-11-25T06:28:29.458Z,70.75
2022-11-25T06:30:28.252Z,70.63
2022-11-25T06:32:49.671Z,71.26
2022-11-25T06:34:52.913Z,72.06
2022-11-25T06:37:06.756Z,71.43
2022-11-25T06:39:05.669Z,72.05
2022-11-25T06:41:05.135Z,71.70
2022-11-25T06:43:04.728Z,71.53
2022-11-25T06:45:04.652Z,70.49
2022-11-25T06:47:03.026Z,70.68
2022-11-25T06:49:01.711Z,70.66
2022-11-25T06:51:01.257Z,70.18
2022-11-25T06:53:01.778Z,70.37
2022-11-25T06:54:59.927Z,70.13
2022-11-25T06:56:58.084Z,70.70
2022-11-25T06:58:56.959Z,70.98
2022-11-25T07:01:01.956Z,70.66
2022-11-25T07:03:00.201Z,70.64
2022-11-25T07:04:58.532Z,70.76
2022-11-25T07:06:56.733Z,70.92
2022-11-25T07:08:55.052Z,70.85
2022-11-25T07:10:53.749Z,70.38
2022-11-25T07:12:51.947Z,70.53
2022-11-25T07:14:51.790Z,70.35
2022-11-25T07:16:51.621Z,70.13
2022-11-25T07:18:50.217Z,69.49
2022-11-25T07:20:48.457Z,69.01
2022-11-25T07:22:47.300Z,68.59
2022-11-25T07:24:45.389Z,68.56
2022-11-25T07:26:45.311Z,68.33
2022-11-25T07:28:44.148Z,68.02
2022-11-25T07:33:02.915Z,68.22
2022-11-25T07:35:02.136Z,67.69
2022-11-25T07:37:00.491Z,68.27
2022-11-25T07:38:59.946Z,68.47
2022-11-25T07:40:58.071Z,68.99
2022-11-25T07:42:56.227Z,69.46
2022-11-25T07:44:54.576Z,69.36
2022-11-25T07:47:11.457Z,69.74
2022-11-25T07:49:13.348Z,70.25
2022-11-25T07:51:20.315Z,70.39
2022-11-25T07:53:18.652Z,70.67
2022-11-25T07:55:16.791Z,70.75
2022-11-25T07:57:15.363Z,70.61
2022-11-25T07:59:16.034Z,71.39
2022-11-25T08:01:15.384Z,70.26
2022-11-25T08:03:13.667Z,68.26
2022-11-25T08:05:13.215Z,66.15
2022-11-25T08:07:12.332Z,63.60
2022-11-25T08:09:14.525Z,59.32
2022-11-25T08:11:16.031Z,53.78
2022-11-25T08:13:14.236Z,50.34
2022-11-25T08:15:12.803Z,47.23
2022-11-25T08:17:11.322Z,46.03
2022-11-25T08:19:13.707Z,46.07
2022-11-25T08:21:15.668Z,45.05
2022-11-25T08:23:13.835Z,42.21
2022-11-25T08:25:11.967Z,41.45
2022-11-25T08:27:10.262Z,43.88
2022-11-25T08:29:10.022Z,43.53
2022-11-25T08:31:10.616Z,42.71
2022-11-25T08:33:08.909Z,41.52
2022-11-25T08:35:08.276Z,44.83
2022-11-25T08:37:09.182Z,43.34
2022-11-25T08:39:29.091Z,41.49
2022-11-25T08:41:29.757Z,39.97
2022-11-25T08:43:29.688Z,38.76
2022-11-25T08:45:28.466Z,37.37
2022-11-25T08:47:27.082Z,37.25
2022-11-25T08:49:27.067Z,38.09
2022-11-25T08:51:27.197Z,37.42
2022-11-25T08:53:26.944Z,37.33
2022-11-25T08:55:26.118Z,36.12
2022-11-25T08:57:24.437Z,36.29
2022-11-25T08:59:25.260Z,35.33
2022-11-25T09:01:25.632Z,35.89
2022-11-25T09:03:23.979Z,35.71
2022-11-25T09:05:22.375Z,36.02
2022-11-25T09:07:21.571Z,35.54
2022-11-25T09:09:23.461Z,36.54
2022-11-25T09:11:21.733Z,38.63
2022-11-25T09:13:20.049Z,38.14
2022-11-25T09:15:18.436Z,38.00
2022-11-25T09:17:16.963Z,39.22
2022-11-25T09:19:15.210Z,40.46
2022-11-25T09:21:17.557Z,40.43
2022-11-25T09:23:15.800Z,40.43
2022-11-25T09:25:15.571Z,40.82
2022-11-25T09:27:13.762Z,42.80
2022-11-25T09:29:12.982Z,43.65
2022-11-25T09:31:11.342Z,44.79
2022-11-25T09:33:10.090Z,41.82
2022-11-25T09:35:09.258Z,44.06
2022-11-25T09:37:07.681Z,45.69
2022-11-25T09:39:06.185Z,42.72
2022-11-25T09:41:10.011Z,40.84
2022-11-25T09:43:39.538Z,39.05
2022-11-25T09:46:05.051Z,37.29
2022-11-25T09:48:22.378Z,37.20
2022-11-25T09:50:29.904Z,36.00
2022-11-25T09:52:37.540Z,36.07
2022-11-25T09:54:38.998Z,36.76
2022-11-25T09:56:43.294Z,37.62
2022-11-25T09:58:49.481Z,37.57
2022-11-25T10:00:51.387Z,36.44
2022-11-25T10:03:00.598Z,36.93
2022-11-25T10:05:05.208Z,35.98
2022-11-25T10:07:05.455Z,36.81
2022-11-25T10:09:12.671Z,36.27
2022-11-25T10:11:23.951Z,39.82
2022-11-25T10:13:28.847Z,39.08
2022-11-25T10:15:31.284Z,37.33
2022-11-25T10:17:39.514Z,40.08
2022-11-25T10:19:47.839Z,39.47
2022-11-25T10:21:46.728Z,39.79
2022-11-25T10:23:45.036Z,39.72
2022-11-25T10:25:47.048Z,39.50
2022-11-25T10:27:50.253Z,41.40
2022-11-25T10:30:00.424Z,40.57
2022-11-25T10:32:12.400Z,39.97
2022-11-25T10:34:21.169Z,42.76
2022-11-25T10:36:23.028Z,44.74
2022-11-25T10:38:27.039Z,44.91
2022-11-25T10:40:25.108Z,42.90
2022-11-25T10:42:25.394Z,42.13
2022-11-25T10:44:27.639Z,41.91
2022-11-25T10:47:11.089Z,40.68
2022-11-25T10:49:01.717Z,40.31
2022-11-25T10:51:20.162Z,41.82
2022-11-25T10:53:21.706Z,41.59
2022-11-25T10:55:24.340Z,43.59
2022-11-25T10:57:22.696Z,46.47
2022-11-25T10:59:27.419Z,48.24
2022-11-25T11:01:27.315Z,49.45
2022-11-25T11:03:27.938Z,51.11
2022-11-25T11:05:29.588Z,52.11
2022-11-25T11:07:30.603Z,53.20
2022-11-25T11:09:33.683Z,54.22
2022-11-25T11:11:32.952Z,55.46
2022-11-25T11:13:33.293Z,56.04
2022-11-25T11:15:33.444Z,56.74
2022-11-25T11:17:37.023Z,56.47
2022-11-25T11:19:35.597Z,57.73
2022-11-25T11:21:35.832Z,58.78
2022-11-25T11:23:49.460Z,60.16
2022-11-25T11:25:57.450Z,59.94
2022-11-25T11:27:56.318Z,61.25
2022-11-25T11:30:09.868Z,60.68
2022-11-25T11:32:23.988Z,59.97
2022-11-25T11:34:41.924Z,60.48
2022-11-25T11:37:01.506Z,60.76
2022-11-25T11:39:20.441Z,61.24
2022-11-25T11:41:31.476Z,61.23
2022-11-25T11:43:43.395Z,60.88
2022-11-25T11:45:59.382Z,61.13
2022-11-25T11:48:10.978Z,62.16
2022-11-25T11:50:27.411Z,62.55
2022-11-25T11:52:42.163Z,62.61
2022-11-25T11:54:46.511Z,62.53
2022-11-25T11:56:55.073Z,63.41
2022-11-25T11:59:08.527Z,63.24
2022-11-25T12:01:17.177Z,63.15
2022-11-25T12:03:19.316Z,63.32
2022-11-25T12:05:23.358Z,64.57
2022-11-25T12:07:29.869Z,64.46
2022-11-25T12:09:33.611Z,64.71
2022-11-25T12:11:36.614Z,65.59
2022-11-25T12:13:44.548Z,65.40
2022-11-25T12:15:48.725Z,65.93
2022-11-25T12:17:52.926Z,66.43
2022-11-25T12:19:58.488Z,66.67
2022-11-25T12:22:04.567Z,66.21
2022-11-25T12:24:07.884Z,65.62
2022-11-25T12:26:13.457Z,65.18
2022-11-25T12:28:16.423Z,65.45
2022-11-25T12:30:18.110Z,65.76
2022-11-25T12:32:42.734Z,66.49
2022-11-25T12:34:46.369Z,66.83
2022-11-25T12:39:07.242Z,67.25
2022-11-25T12:41:21.511Z,67.44
2022-11-25T12:43:29.045Z,67.28
2022-11-25T12:45:34.186Z,67.77
2022-11-25T12:47:56.001Z,66.76
2022-11-25T12:49:57.579Z,66.76
2022-11-25T12:52:20.224Z,66.81
2022-11-25T12:54:35.710Z,66.83
2022-11-25T12:56:54.712Z,67.13
2022-11-25T12:59:07.045Z,67.71
2022-11-25T13:01:47.024Z,67.65
2022-11-25T13:04:19.323Z,67.54
2022-11-25T13:06:43.638Z,67.79
2022-11-25T13:08:56.896Z,68.05
2022-11-25T13:11:19.636Z,68.05
2022-11-25T13:13:38.981Z,67.63
2022-11-25T13:15:42.027Z,67.08
2022-11-25T13:17:44.432Z,66.58
2022-11-25T13:19:43.067Z,66.80
2022-11-25T13:22:12.746Z,66.91
2022-11-25T13:24:29.343Z,67.41
2022-11-25T13:26:50.341Z,68.02
2022-11-25T13:28:51.593Z,68.44
2022-11-25T13:31:22.956Z,68.41
2022-11-25T13:34:10.029Z,68.43
2022-11-25T13:36:32.119Z,68.35
2022-11-25T13:39:07.482Z,68.01
2022-11-25T13:41:24.226Z,67.77
2022-11-25T13:43:24.467Z,68.25
2022-11-25T13:45:29.383Z,68.33
2022-11-25T13:47:34.967Z,68.10
2022-11-25T13:49:45.412Z,68.40
2022-11-25T13:51:50.437Z,68.26
2022-11-25T13:53:54.306Z,68.89
2022-11-25T13:55:55.098Z,69.01
2022-11-25T13:58:05.939Z,69.31
2022-11-25T14:00:10.325Z,69.51
2022-11-25T14:02:34.067Z,69.17
2022-11-25T14:04:45.974Z,69.37
2022-11-25T14:07:03.019Z,69.86
2022-11-25T14:09:04.905Z,69.71
2022-11-25T14:11:38.143Z,69.71
2022-11-25T14:14:09.174Z,70.11
2022-11-25T14:16:33.503Z,70.75
2022-11-25T14:19:35.212Z,71.13
2022-11-25T14:21:33.958Z,71.37
2022-11-25T14:24:06.046Z,71.41
2022-11-25T14:26:26.771Z,71.82
2022-11-25T14:28:34.773Z,72.32
2022-11-25T14:30:33.877Z,72.24
2022-11-25T14:32:39.301Z,72.75
2022-11-25T14:34:41.560Z,72.18
2022-11-25T14:36:43.479Z,72.77
2022-11-25T14:38:48.469Z,72.64
2022-11-25T14:40:54.742Z,72.94
2022-11-25T14:42:59.514Z,73.58
2022-11-25T14:44:58.557Z,73.85
2022-11-25T14:46:59.534Z,74.21
2022-11-25T14:49:02.904Z,74.40
2022-11-25T14:51:03.956Z,74.64
2022-11-25T14:53:02.321Z,74.95
2022-11-25T14:55:02.179Z,75.25
2022-11-25T14:57:01.149Z,75.52
2022-11-25T14:59:00.532Z,75.66
2022-11-25T15:01:02.068Z,76.12
2022-11-25T15:03:02.777Z,76.02
2022-11-25T15:05:18.322Z,75.82
2022-11-25T15:07:20.543Z,74.86
2022-11-25T15:09:22.672Z,75.63
2022-11-25T15:11:23.727Z,75.72
2022-11-25T15:13:34.277Z,76.30
2022-11-25T15:15:32.649Z,76.67
2022-11-25T15:17:32.993Z,76.81
2022-11-25T15:19:36.315Z,77.40
2022-11-25T15:22:07.018Z,77.31
2022-11-25T15:23:57.549Z,78.02
2022-11-25T15:25:57.918Z,78.46
2022-11-25T15:27:56.200Z,78.08
2022-11-25T15:29:55.994Z,78.89
2022-11-25T15:31:56.125Z,78.56
2022-11-25T15:33:58.016Z,78.45
2022-11-25T15:35:56.870Z,78.84
2022-11-25T15:37:56.693Z,78.40
2022-11-25T15:40:28.160Z,76.89
2022-11-25T15:42:29.458Z,74.96
2022-11-25T15:44:30.630Z,73.95
2022-11-25T15:46:30.753Z,74.02
2022-11-25T15:48:31.990Z,73.42
2022-11-25T15:50:32.671Z,73.95
2022-11-25T15:52:33.204Z,73.27
2022-11-25T15:54:39.333Z,72.63
2022-11-25T15:56:44.619Z,72.46
2022-11-25T15:58:43.615Z,72.81
2022-11-25T16:00:42.728Z,72.78
2022-11-25T16:02:51.898Z,72.38
2022-11-25T16:04:50.443Z,72.06
2022-11-25T16:06:56.795Z,72.75
2022-11-25T16:08:56.226Z,72.88
2022-11-25T16:10:59.456Z,72.88
2022-11-25T16:13:21.152Z,73.18
2022-11-25T16:15:20.376Z,73.60
2022-11-25T16:17:18.676Z,74.21
2022-11-25T16:19:20.492Z,73.72
2022-11-25T16:21:22.311Z,73.66
2022-11-25T16:23:22.799Z,73.86
2022-11-25T16:25:21.018Z,74.14
2022-11-25T16:27:24.324Z,74.51
2022-11-25T16:29:27.835Z,74.95
2022-11-25T16:31:27.028Z,75.65
2022-11-25T16:33:25.904Z,75.59
2022-11-25T16:35:24.721Z,75.41
2022-11-25T16:37:23.008Z,75.81
2022-11-25T16:39:21.675Z,75.65
2022-11-25T16:41:23.811Z,76.06
2022-11-25T16:43:25.970Z,75.90
2022-11-25T16:45:26.072Z,75.79
2022-11-25T16:47:25.749Z,75.42
2022-11-25T16:49:23.975Z,75.20
2022-11-25T16:51:25.038Z,75.52
2022-11-25T16:53:23.341Z,75.15
2022-11-25T16:55:28.575Z,74.60
2022-11-25T16:57:26.985Z,74.83
2022-11-25T16:59:31.725Z,74.66
2022-11-25T17:01:31.223Z,74.51
2022-11-25T17:03:29.628Z,75.22
2022-11-25T17:05:28.136Z,75.43
2022-11-25T17:07:34.211Z,75.66
2022-11-25T17:09:32.867Z,75.92
2022-11-25T17:11:34.762Z,76.36
2022-11-25T17:13:35.044Z,76.23
2022-11-25T17:15:37.715Z,76.78
2022-11-25T17:17:36.802Z,76.85
2022-11-25T17:19:35.385Z,77.19
2022-11-25T17:21:34.588Z,77.02
2022-11-25T17:23:32.741Z,77.17
2022-11-25T17:25:36.692Z,75.85
2022-11-25T17:27:35.653Z,75.79
2022-11-25T17:29:38.430Z,75.54
2022-11-25T17:31:39.309Z,76.20
2022-11-25T17:33:37.676Z,75.67
2022-11-25T17:35:35.778Z,76.18
2022-11-25T17:37:34.095Z,76.76
2022-11-25T17:39:32.416Z,76.56
2022-11-25T17:41:34.208Z,76.81
2022-11-25T17:43:35.168Z,77.18
2022-11-25T17:45:33.541Z,77.59
2022-11-25T17:47:33.494Z,77.61
2022-11-25T17:49:31.841Z,77.69
2022-11-25T17:51:30.263Z,77.61
2022-11-25T17:53:28.388Z,77.74
2022-11-25T17:55:27.206Z,77.91
2022-11-25T17:57:29.220Z,78.78
2022-11-25T17:59:30.822Z,79.26
2022-11-25T18:01:29.150Z,79.53
2022-11-25T18:03:28.732Z,79.49
2022-11-25T18:05:28.630Z,80.47
2022-11-25T18:07:26.907Z,80.15
2022-11-25T18:09:25.348Z,80.47
2022-11-25T18:11:23.698Z,81.18
2022-11-25T18:13:22.351Z,80.92
2022-11-25T18:15:23.792Z,80.52
2022-11-25T18:17:22.168Z,80.69
2022-11-25T18:19:21.892Z,80.71
2022-11-25T18:21:20.083Z,81.80
2022-11-25T18:23:18.463Z,81.38
2022-11-25T18:25:18.155Z,81.41
2022-11-25T18:27:23.015Z,81.45
2022-11-25T18:29:25.701Z,81.45
2022-11-25T18:31:24.367Z,81.76
2022-11-25T18:33:22.552Z,81.14
2022-11-25T18:35:24.363Z,80.93
2022-11-25T18:37:22.767Z,81.19
2022-11-25T18:39:21.837Z,80.70
2022-11-25T18:41:22.180Z,80.80
2022-11-25T18:43:24.765Z,80.70
2022-11-25T18:45:26.897Z,80.58
2022-11-25T18:47:25.455Z,80.78
2022-11-25T18:49:25.036Z,81.76
2022-11-25T18:51:25.855Z,82.09
2022-11-25T18:53:24.215Z,82.14
2022-11-25T18:55:24.196Z,82.28
2022-11-25T18:57:22.598Z,82.54
2022-11-25T18:59:29.980Z,83.09
2022-11-25T19:01:28.857Z,82.64
2022-11-25T19:03:27.635Z,81.94
2022-11-25T19:05:27.600Z,82.13
2022-11-25T19:07:27.336Z,82.37
2022-11-25T19:09:25.650Z,82.05
2022-11-25T19:11:30.731Z,82.35
2022-11-25T19:13:33.836Z,81.81
2022-11-25T19:15:33.091Z,81.46
2022-11-25T19:17:31.477Z,80.72
2022-11-25T19:19:30.139Z,80.77
2022-11-25T19:21:30.552Z,80.41
2022-11-25T19:23:30.630Z,81.84
2022-11-25T19:25:29.584Z,80.58
2022-11-25T19:27:28.675Z,81.01
2022-11-25T19:29:37.505Z,79.40
2022-11-25T19:31:39.061Z,79.79
2022-11-25T19:33:39.615Z,80.11
2022-11-25T19:35:39.130Z,79.11
2022-11-25T19:37:37.463Z,79.64
2022-11-25T19:39:37.867Z,80.16
2022-11-25T19:41:36.159Z,81.04
2022-11-25T19:43:34.204Z,80.98
2022-11-25T19:45:33.533Z,81.50
2022-11-25T19:47:32.147Z,81.49
2022-11-25T19:49:30.441Z,80.31
2022-11-25T19:51:32.761Z,80.54
2022-11-25T19:53:34.096Z,81.16
2022-11-25T19:55:34.166Z,81.40
2022-11-25T19:57:32.469Z,82.02
2022-11-25T19:59:30.628Z,82.66
2022-11-25T20:01:34.142Z,82.57
2022-11-25T20:03:33.179Z,82.84
2022-11-25T20:05:33.995Z,83.14
2022-11-25T20:07:32.461Z,82.46
2022-11-25T20:09:30.888Z,83.27
2022-11-25T20:11:30.562Z,82.89
2022-11-25T20:13:28.756Z,83.04
2022-11-25T20:15:27.642Z,83.42
2022-11-25T20:17:30.950Z,84.13
2022-11-25T20:19:29.256Z,84.25
2022-11-25T20:21:33.713Z,83.99
2022-11-25T20:23:38.649Z,84.55
2022-11-25T20:25:43.944Z,84.26
2022-11-25T20:27:43.631Z,85.15
2022-11-25T20:29:41.795Z,86.14
2022-11-25T20:31:40.196Z,86.77
2022-11-25T20:33:38.655Z,86.92
2022-11-25T20:35:36.783Z,87.58
2022-11-25T20:37:50.630Z,87.30
2022-11-25T20:39:48.804Z,87.21
2022-11-25T20:41:50.180Z,87.68
2022-11-25T20:43:53.317Z,87.88
2022-11-25T20:45:51.703Z,87.25
2022-11-25T20:47:51.043Z,88.20
2022-11-25T20:49:49.946Z,88.23
2022-11-25T20:51:48.182Z,87.79
2022-11-25T20:53:48.483Z,88.08
2022-11-25T20:55:47.405Z,87.74
2022-11-25T20:57:45.998Z,87.96
2022-11-25T20:59:45.799Z,87.80
2022-11-25T21:01:44.941Z,88.09
2022-11-25T21:03:43.711Z,88.39
2022-11-25T21:05:42.415Z,89.00
2022-11-25T21:07:41.059Z,89.10
2022-11-25T21:09:39.323Z,89.50
2022-11-25T21:11:37.553Z,90.17
2022-11-25T21:13:36.215Z,90.54
2022-11-25T21:15:35.808Z,90.76
2022-11-25T21:17:34.089Z,90.21
2022-11-25T21:19:32.279Z,91.34
2022-11-25T21:21:34.708Z,91.81
2022-11-25T21:23:37.256Z,92.14
2022-11-25T21:25:36.747Z,91.80
2022-11-25T21:27:35.216Z,92.38
2022-11-25T21:29:33.827Z,92.72
2022-11-25T21:31:36.430Z,92.78
2022-11-25T21:33:37.558Z,92.95
2022-11-25T21:35:45.829Z,93.51
2022-11-25T21:37:48.843Z,93.56
2022-11-25T21:39:51.313Z,93.03
2022-11-25T21:41:59.853Z,92.83
2022-11-25T21:44:07.666Z,92.96
2022-11-25T21:46:08.624Z,93.25
2022-11-25T21:48:17.762Z,93.53
2022-11-25T21:50:18.424Z,93.43
2022-11-25T21:52:17.752Z,93.14
2022-11-25T21:54:16.138Z,93.08
2022-11-25T21:56:19.227Z,92.99
2022-11-25T21:58:19.193Z,93.58
2022-11-25T22:00:23.746Z,94.23
2022-11-25T22:02:23.006Z,93.97
2022-11-25T22:04:22.940Z,93.80
2022-11-25T22:06:24.253Z,94.27
2022-11-25T22:08:25.205Z,94.32
2022-11-25T22:10:23.959Z,95.06
2022-11-25T22:12:28.710Z,95.23
2022-11-25T22:14:34.197Z,95.00
2022-11-25T22:16:35.583Z,96.41
2022-11-25T22:18:36.494Z,96.40
2022-11-25T22:20:36.692Z,96.09
2022-11-25T22:22:35.054Z,96.17
2022-11-25T22:24:34.513Z,96.26
2022-11-25T22:26:35.332Z,95.77
2022-11-25T22:28:33.560Z,95.06
2022-11-25T22:30:32.129Z,94.73
2022-11-25T22:32:30.525Z,94.56
2022-11-25T22:34:29.038Z,93.83
2022-11-25T22:36:34.167Z,93.83
2022-11-25T22:38:32.787Z,93.95
2022-11-25T22:40:31.105Z,94.27
2022-11-25T22:42:32.480Z,94.55
2022-11-25T22:44:36.343Z,94.28
2022-11-25T22:46:38.642Z,94.54
2022-11-25T22:48:39.109Z,94.66
2022-11-25T22:50:38.773Z,94.32
2022-11-25T22:52:38.489Z,94.25
2022-11-25T22:54:37.119Z,94.07
2022-11-25T22:56:35.507Z,94.02
2022-11-25T22:58:33.644Z,94.18
2022-11-25T23:00:35.282Z,93.51
2022-11-25T23:02:35.334Z,93.90
2022-11-25T23:04:34.052Z,93.82
2022-11-25T23:06:32.595Z,93.81
2022-11-25T23:08:32.477Z,93.60
2022-11-25T23:10:32.698Z,93.86
2022-11-25T23:12:30.982Z,94.00
2022-11-25T23:14:29.118Z,93.96
2022-11-25T23:16:27.437Z,93.43
2022-11-25T23:18:29.563Z,93.25
2022-11-25T23:20:32.001Z,93.21
2022-11-25T23:22:30.136Z,92.98
2022-11-25T23:24:31.902Z,92.76
2022-11-25T23:26:34.975Z,92.66
2022-11-25T23:28:33.675Z,92.81
2022-11-25T23:30:32.219Z,92.76
2022-11-25T23:32:30.507Z,92.57
2022-11-25T23:34:28.767Z,92.21
2022-11-25T23:36:29.740Z,92.64
2022-11-25T23:38:29.837Z,92.71
2022-11-25T23:40:29.629Z,92.58
2022-11-25T23:42:27.899Z,92.94
2022-11-25T23:44:27.639Z,93.20
2022-11-25T23:46:30.540Z,93.08
2022-11-25T23:48:31.353Z,93.30
2022-11-25T23:50:32.312Z,93.65
2022-11-25T23:52:30.551Z,92.85
2022-11-25T23:54:39.965Z,92.90
2022-11-25T23:56:39.707Z,92.58
2022-11-25T23:58:37.933Z,92.80
